sensor_id;sensor_type;location;lat;lon;timestamp;P1;durP1;ratioP1;P2;durP2;ratioP2
30384;SDS011;17181;51.002;4.096;2022-08-18T00:01:44;49.63;;;20.50;;
30384;SDS011;17181;51.002;4.096;2022-08-18T00:04:12;51.50;;;20.60;;
30384;SDS011;17181;51.002;4.096;2022-08-18T00:06:39;35.97;;;21.40;;
30384;SDS011;17181;51.002;4.096;2022-08-18T00:09:06;53.23;;;24.33;;
30384;SDS011;17181;51.002;4.096;2022-08-18T00:11:35;40.53;;;22.77;;
30384;SDS011;17181;51.002;4.096;2022-08-18T00:14:03;42.93;;;23.67;;
30384;SDS011;17181;51.002;4.096;2022-08-18T00:16:29;58.03;;;22.90;;
30384;SDS011;17181;51.002;4.096;2022-08-18T00:18:55;45.63;;;24.60;;
30384;SDS011;17181;51.002;4.096;2022-08-18T00:21:21;40.03;;;22.37;;
30384;SDS011;17181;51.002;4.096;2022-08-18T00:23:46;39.00;;;21.77;;
30384;SDS011;17181;51.002;4.096;2022-08-18T00:26:12;41.80;;;23.20;;
30384;SDS011;17181;51.002;4.096;2022-08-18T00:28:38;50.07;;;23.00;;
30384;SDS011;17181;51.002;4.096;2022-08-18T00:31:04;38.70;;;23.33;;
30384;SDS011;17181;51.002;4.096;2022-08-18T00:33:30;47.57;;;21.57;;
30384;SDS011;17181;51.002;4.096;2022-08-18T00:35:56;54.57;;;21.83;;
30384;SDS011;17181;51.002;4.096;2022-08-18T00:38:22;48.23;;;25.47;;
30384;SDS011;17181;51.002;4.096;2022-08-18T00:40:49;50.83;;;23.40;;
30384;SDS011;17181;51.002;4.096;2022-08-18T00:43:21;50.07;;;25.43;;
30384;SDS011;17181;51.002;4.096;2022-08-18T00:45:48;258.97;;;31.63;;
30384;SDS011;17181;51.002;4.096;2022-08-18T00:48:14;371.03;;;31.33;;
30384;SDS011;17181;51.002;4.096;2022-08-18T00:53:45;143.47;;;21.27;;
30384;SDS011;17181;51.002;4.096;2022-08-18T00:56:18;139.80;;;22.50;;
30384;SDS011;17181;51.002;4.096;2022-08-18T00:58:52;37.67;;;23.10;;
30384;SDS011;17181;51.002;4.096;2022-08-18T01:01:24;42.77;;;23.70;;
30384;SDS011;17181;51.002;4.096;2022-08-18T01:03:55;118.13;;;25.47;;
30384;SDS011;17181;51.002;4.096;2022-08-18T01:06:33;49.80;;;24.17;;
30384;SDS011;17181;51.002;4.096;2022-08-18T01:09:06;108.83;;;23.60;;
30384;SDS011;17181;51.002;4.096;2022-08-18T01:11:34;87.50;;;21.93;;
30384;SDS011;17181;51.002;4.096;2022-08-18T01:14:03;68.53;;;22.53;;
30384;SDS011;17181;51.002;4.096;2022-08-18T01:16:31;47.80;;;21.83;;
30384;SDS011;17181;51.002;4.096;2022-08-18T01:19:16;47.80;;;22.67;;
30384;SDS011;17181;51.002;4.096;2022-08-18T01:24:53;50.90;;;23.53;;
30384;SDS011;17181;51.002;4.096;2022-08-18T01:27:40;49.93;;;19.97;;
30384;SDS011;17181;51.002;4.096;2022-08-18T01:30:08;75.20;;;19.93;;
30384;SDS011;17181;51.002;4.096;2022-08-18T01:32:38;50.57;;;20.13;;
30384;SDS011;17181;51.002;4.096;2022-08-18T01:35:05;52.20;;;18.03;;
30384;SDS011;17181;51.002;4.096;2022-08-18T01:37:34;80.77;;;20.63;;
30384;SDS011;17181;51.002;4.096;2022-08-18T01:40:00;64.47;;;20.97;;
30384;SDS011;17181;51.002;4.096;2022-08-18T01:42:30;50.70;;;21.17;;
30384;SDS011;17181;51.002;4.096;2022-08-18T01:44:56;54.93;;;21.43;;
30384;SDS011;17181;51.002;4.096;2022-08-18T01:47:22;131.13;;;20.70;;
30384;SDS011;17181;51.002;4.096;2022-08-18T01:49:48;57.83;;;20.37;;
30384;SDS011;17181;51.002;4.096;2022-08-18T01:52:15;45.90;;;20.30;;
30384;SDS011;17181;51.002;4.096;2022-08-18T01:54:44;101.90;;;22.63;;
30384;SDS011;17181;51.002;4.096;2022-08-18T01:57:11;70.17;;;20.97;;
30384;SDS011;17181;51.002;4.096;2022-08-18T01:59:39;40.50;;;20.40;;
30384;SDS011;17181;51.002;4.096;2022-08-18T02:02:06;52.30;;;22.43;;
30384;SDS011;17181;51.002;4.096;2022-08-18T02:04:34;72.37;;;21.97;;
30384;SDS011;17181;51.002;4.096;2022-08-18T02:07:01;89.57;;;23.97;;
30384;SDS011;17181;51.002;4.096;2022-08-18T02:09:30;56.70;;;19.87;;
30384;SDS011;17181;51.002;4.096;2022-08-18T02:11:55;53.17;;;22.87;;
30384;SDS011;17181;51.002;4.096;2022-08-18T02:14:24;54.50;;;22.63;;
30384;SDS011;17181;51.002;4.096;2022-08-18T02:16:50;73.33;;;22.47;;
30384;SDS011;17181;51.002;4.096;2022-08-18T02:19:16;72.97;;;20.80;;
30384;SDS011;17181;51.002;4.096;2022-08-18T02:21:42;56.90;;;19.83;;
30384;SDS011;17181;51.002;4.096;2022-08-18T02:24:07;46.53;;;18.20;;
30384;SDS011;17181;51.002;4.096;2022-08-18T02:26:33;50.07;;;19.07;;
30384;SDS011;17181;51.002;4.096;2022-08-18T02:28:59;41.67;;;19.80;;
30384;SDS011;17181;51.002;4.096;2022-08-18T02:31:25;57.00;;;21.27;;
30384;SDS011;17181;51.002;4.096;2022-08-18T02:33:51;31.70;;;19.40;;
30384;SDS011;17181;51.002;4.096;2022-08-18T02:36:17;35.33;;;20.53;;
30384;SDS011;17181;51.002;4.096;2022-08-18T02:38:45;39.97;;;20.30;;
30384;SDS011;17181;51.002;4.096;2022-08-18T02:41:11;56.17;;;18.93;;
30384;SDS011;17181;51.002;4.096;2022-08-18T02:43:41;56.93;;;18.87;;
30384;SDS011;17181;51.002;4.096;2022-08-18T02:46:07;48.70;;;22.23;;
30384;SDS011;17181;51.002;4.096;2022-08-18T02:48:34;81.80;;;22.47;;
30384;SDS011;17181;51.002;4.096;2022-08-18T02:51:00;69.40;;;21.60;;
30384;SDS011;17181;51.002;4.096;2022-08-18T02:53:32;76.90;;;21.63;;
30384;SDS011;17181;51.002;4.096;2022-08-18T02:56:08;61.03;;;19.10;;
30384;SDS011;17181;51.002;4.096;2022-08-18T02:58:50;45.73;;;17.97;;
30384;SDS011;17181;51.002;4.096;2022-08-18T03:01:20;38.50;;;17.30;;
30384;SDS011;17181;51.002;4.096;2022-08-18T03:03:50;70.50;;;21.53;;
30384;SDS011;17181;51.002;4.096;2022-08-18T03:06:17;48.90;;;19.80;;
30384;SDS011;17181;51.002;4.096;2022-08-18T03:08:44;76.07;;;21.67;;
30384;SDS011;17181;51.002;4.096;2022-08-18T03:11:17;38.00;;;18.17;;
30384;SDS011;17181;51.002;4.096;2022-08-18T03:13:47;44.83;;;18.47;;
30384;SDS011;17181;51.002;4.096;2022-08-18T03:16:14;47.67;;;19.20;;
30384;SDS011;17181;51.002;4.096;2022-08-18T03:18:41;55.77;;;18.70;;
30384;SDS011;17181;51.002;4.096;2022-08-18T03:21:09;44.80;;;17.73;;
30384;SDS011;17181;51.002;4.096;2022-08-18T03:23:40;31.20;;;16.73;;
30384;SDS011;17181;51.002;4.096;2022-08-18T03:26:07;32.87;;;16.90;;
30384;SDS011;17181;51.002;4.096;2022-08-18T03:28:38;60.77;;;18.07;;
30384;SDS011;17181;51.002;4.096;2022-08-18T03:31:06;52.37;;;20.73;;
30384;SDS011;17181;51.002;4.096;2022-08-18T03:33:33;31.53;;;16.87;;
30384;SDS011;17181;51.002;4.096;2022-08-18T03:36:06;58.27;;;19.20;;
30384;SDS011;17181;51.002;4.096;2022-08-18T03:38:33;75.20;;;19.00;;
30384;SDS011;17181;51.002;4.096;2022-08-18T03:40:59;119.80;;;22.27;;
30384;SDS011;17181;51.002;4.096;2022-08-18T03:43:25;72.13;;;16.53;;
30384;SDS011;17181;51.002;4.096;2022-08-18T03:45:51;61.43;;;19.73;;
30384;SDS011;17181;51.002;4.096;2022-08-18T03:48:20;76.10;;;20.17;;
30384;SDS011;17181;51.002;4.096;2022-08-18T03:50:46;73.43;;;18.47;;
30384;SDS011;17181;51.002;4.096;2022-08-18T03:53:12;83.87;;;18.63;;
30384;SDS011;17181;51.002;4.096;2022-08-18T03:55:41;62.70;;;16.90;;
30384;SDS011;17181;51.002;4.096;2022-08-18T03:58:07;54.87;;;19.17;;
30384;SDS011;17181;51.002;4.096;2022-08-18T04:00:37;49.37;;;18.47;;
30384;SDS011;17181;51.002;4.096;2022-08-18T04:03:03;38.43;;;15.97;;
30384;SDS011;17181;51.002;4.096;2022-08-18T04:05:30;37.50;;;17.20;;
30384;SDS011;17181;51.002;4.096;2022-08-18T04:07:56;48.47;;;18.10;;
30384;SDS011;17181;51.002;4.096;2022-08-18T04:10:23;59.40;;;17.63;;
30384;SDS011;17181;51.002;4.096;2022-08-18T04:12:49;70.03;;;18.47;;
30384;SDS011;17181;51.002;4.096;2022-08-18T04:15:16;35.70;;;17.03;;
30384;SDS011;17181;51.002;4.096;2022-08-18T04:17:42;92.10;;;17.70;;
30384;SDS011;17181;51.002;4.096;2022-08-18T04:20:10;60.67;;;19.13;;
30384;SDS011;17181;51.002;4.096;2022-08-18T04:22:37;28.63;;;15.50;;
30384;SDS011;17181;51.002;4.096;2022-08-18T04:25:03;44.43;;;16.67;;
30384;SDS011;17181;51.002;4.096;2022-08-18T04:27:29;58.30;;;16.30;;
30384;SDS011;17181;51.002;4.096;2022-08-18T04:29:55;42.37;;;16.37;;
30384;SDS011;17181;51.002;4.096;2022-08-18T04:32:22;51.67;;;16.03;;
30384;SDS011;17181;51.002;4.096;2022-08-18T04:34:48;28.77;;;15.40;;
30384;SDS011;17181;51.002;4.096;2022-08-18T04:37:14;28.67;;;13.97;;
30384;SDS011;17181;51.002;4.096;2022-08-18T04:39:41;45.13;;;17.03;;
30384;SDS011;17181;51.002;4.096;2022-08-18T04:42:07;32.80;;;14.17;;
30384;SDS011;17181;51.002;4.096;2022-08-18T04:44:34;60.60;;;16.60;;
30384;SDS011;17181;51.002;4.096;2022-08-18T04:47:02;40.27;;;16.23;;
30384;SDS011;17181;51.002;4.096;2022-08-18T04:49:29;43.90;;;16.83;;
30384;SDS011;17181;51.002;4.096;2022-08-18T04:51:56;43.70;;;14.07;;
30384;SDS011;17181;51.002;4.096;2022-08-18T04:54:41;37.73;;;15.97;;
30384;SDS011;17181;51.002;4.096;2022-08-18T04:57:11;41.57;;;17.33;;
30384;SDS011;17181;51.002;4.096;2022-08-18T04:59:39;58.27;;;15.30;;
30384;SDS011;17181;51.002;4.096;2022-08-18T05:02:08;29.07;;;14.30;;
30384;SDS011;17181;51.002;4.096;2022-08-18T05:04:35;35.90;;;15.07;;
30384;SDS011;17181;51.002;4.096;2022-08-18T05:07:09;26.17;;;15.07;;
30384;SDS011;17181;51.002;4.096;2022-08-18T05:09:39;36.70;;;14.33;;
30384;SDS011;17181;51.002;4.096;2022-08-18T05:12:09;54.30;;;14.07;;
30384;SDS011;17181;51.002;4.096;2022-08-18T05:14:38;53.17;;;14.57;;
30384;SDS011;17181;51.002;4.096;2022-08-18T05:17:04;23.00;;;12.27;;
30384;SDS011;17181;51.002;4.096;2022-08-18T05:19:30;31.60;;;13.07;;
30384;SDS011;17181;51.002;4.096;2022-08-18T05:21:57;26.80;;;11.73;;
30384;SDS011;17181;51.002;4.096;2022-08-18T05:24:24;19.47;;;12.03;;
30384;SDS011;17181;51.002;4.096;2022-08-18T05:26:51;16.40;;;12.13;;
30384;SDS011;17181;51.002;4.096;2022-08-18T05:29:19;22.10;;;12.93;;
30384;SDS011;17181;51.002;4.096;2022-08-18T05:31:49;17.40;;;12.03;;
30384;SDS011;17181;51.002;4.096;2022-08-18T05:34:17;25.77;;;12.50;;
30384;SDS011;17181;51.002;4.096;2022-08-18T05:36:50;13.83;;;10.23;;
30384;SDS011;17181;51.002;4.096;2022-08-18T05:39:39;35.13;;;12.53;;
30384;SDS011;17181;51.002;4.096;2022-08-18T05:42:17;22.33;;;12.00;;
30384;SDS011;17181;51.002;4.096;2022-08-18T05:44:49;27.57;;;12.03;;
30384;SDS011;17181;51.002;4.096;2022-08-18T05:49:49;21.17;;;12.57;;
30384;SDS011;17181;51.002;4.096;2022-08-18T05:55:09;40.43;;;13.70;;
30384;SDS011;17181;51.002;4.096;2022-08-18T06:04:54;23.00;;;13.07;;
30384;SDS011;17181;51.002;4.096;2022-08-18T06:07:03;53.90;;;14.53;;
30384;SDS011;17181;51.002;4.096;2022-08-18T06:09:35;29.37;;;13.90;;
30384;SDS011;17181;51.002;4.096;2022-08-18T06:12:54;35.70;;;14.20;;
30384;SDS011;17181;51.002;4.096;2022-08-18T06:15:02;26.57;;;13.97;;
30384;SDS011;17181;51.002;4.096;2022-08-18T06:20:10;32.63;;;12.20;;
30384;SDS011;17181;51.002;4.096;2022-08-18T06:25:26;47.47;;;12.73;;
30384;SDS011;17181;51.002;4.096;2022-08-18T06:28:19;40.33;;;13.30;;
30384;SDS011;17181;51.002;4.096;2022-08-18T06:39:44;47.30;;;15.23;;
30384;SDS011;17181;51.002;4.096;2022-08-18T06:41:44;25.50;;;12.93;;
30384;SDS011;17181;51.002;4.096;2022-08-18T06:52:26;33.73;;;13.57;;
30384;SDS011;17181;51.002;4.096;2022-08-18T06:54:59;42.17;;;14.83;;
30384;SDS011;17181;51.002;4.096;2022-08-18T06:57:32;70.93;;;18.33;;
30384;SDS011;17181;51.002;4.096;2022-08-18T07:10:53;32.00;;;15.17;;
30384;SDS011;17181;51.002;4.096;2022-08-18T07:13:28;29.40;;;15.27;;
30384;SDS011;17181;51.002;4.096;2022-08-18T07:15:54;38.50;;;17.80;;
30384;SDS011;17181;51.002;4.096;2022-08-18T07:18:40;40.80;;;19.97;;
30384;SDS011;17181;51.002;4.096;2022-08-18T07:21:07;30.33;;;16.47;;
30384;SDS011;17181;51.002;4.096;2022-08-18T07:23:38;40.10;;;19.03;;
30384;SDS011;17181;51.002;4.096;2022-08-18T07:26:09;46.23;;;18.00;;
30384;SDS011;17181;51.002;4.096;2022-08-18T07:28:45;48.47;;;21.30;;
30384;SDS011;17181;51.002;4.096;2022-08-18T07:31:59;54.23;;;19.97;;
30384;SDS011;17181;51.002;4.096;2022-08-18T07:34:11;62.80;;;21.47;;
30384;SDS011;17181;51.002;4.096;2022-08-18T07:37:05;51.67;;;21.67;;
30384;SDS011;17181;51.002;4.096;2022-08-18T07:39:44;42.00;;;19.80;;
30384;SDS011;17181;51.002;4.096;2022-08-18T07:45:05;57.23;;;20.37;;
30384;SDS011;17181;51.002;4.096;2022-08-18T07:47:44;55.27;;;24.37;;
30384;SDS011;17181;51.002;4.096;2022-08-18T07:50:16;58.73;;;24.30;;
30384;SDS011;17181;51.002;4.096;2022-08-18T07:55:37;53.50;;;23.33;;
30384;SDS011;17181;51.002;4.096;2022-08-18T08:03:38;50.13;;;23.33;;
30384;SDS011;17181;51.002;4.096;2022-08-18T08:11:55;55.67;;;24.17;;
30384;SDS011;17181;51.002;4.096;2022-08-18T08:14:29;56.33;;;23.73;;
30384;SDS011;17181;51.002;4.096;2022-08-18T08:25:10;42.77;;;20.27;;
30384;SDS011;17181;51.002;4.096;2022-08-18T08:27:52;39.47;;;21.00;;
30384;SDS011;17181;51.002;4.096;2022-08-18T08:30:52;40.57;;;21.37;;
30384;SDS011;17181;51.002;4.096;2022-08-18T08:33:28;51.33;;;25.13;;
30384;SDS011;17181;51.002;4.096;2022-08-18T08:36:11;46.13;;;22.77;;
30384;SDS011;17181;51.002;4.096;2022-08-18T08:38:53;46.60;;;25.60;;
30384;SDS011;17181;51.002;4.096;2022-08-18T08:41:25;37.67;;;21.97;;
30384;SDS011;17181;51.002;4.096;2022-08-18T08:44:08;32.40;;;18.17;;
30384;SDS011;17181;51.002;4.096;2022-08-18T08:52:20;30.50;;;17.93;;
30384;SDS011;17181;51.002;4.096;2022-08-18T08:57:36;28.30;;;16.20;;
30384;SDS011;17181;51.002;4.096;2022-08-18T09:00:08;25.00;;;14.87;;
30384;SDS011;17181;51.002;4.096;2022-08-18T09:02:51;30.93;;;17.63;;
30384;SDS011;17181;51.002;4.096;2022-08-18T09:05:27;32.43;;;17.47;;
30384;SDS011;17181;51.002;4.096;2022-08-18T09:10:41;32.30;;;18.77;;
30384;SDS011;17181;51.002;4.096;2022-08-18T09:18:33;43.50;;;21.30;;
30384;SDS011;17181;51.002;4.096;2022-08-18T09:21:15;35.83;;;21.53;;
30384;SDS011;17181;51.002;4.096;2022-08-18T09:23:50;37.57;;;21.67;;
30384;SDS011;17181;51.002;4.096;2022-08-18T09:29:11;22.17;;;15.27;;
30384;SDS011;17181;51.002;4.096;2022-08-18T09:32:28;31.20;;;19.93;;
30384;SDS011;17181;51.002;4.096;2022-08-18T09:37:48;21.53;;;14.33;;
30384;SDS011;17181;51.002;4.096;2022-08-18T09:51:59;21.57;;;14.07;;
30384;SDS011;17181;51.002;4.096;2022-08-18T09:55:08;21.27;;;15.97;;
30384;SDS011;17181;51.002;4.096;2022-08-18T10:01:18;20.77;;;12.57;;
30384;SDS011;17181;51.002;4.096;2022-08-18T10:06:41;17.97;;;12.10;;
30384;SDS011;17181;51.002;4.096;2022-08-18T10:17:49;17.37;;;10.33;;
30384;SDS011;17181;51.002;4.096;2022-08-18T10:26:25;23.20;;;14.17;;
30384;SDS011;17181;51.002;4.096;2022-08-18T10:28:58;26.07;;;14.93;;
30384;SDS011;17181;51.002;4.096;2022-08-18T10:31:26;15.90;;;10.30;;
30384;SDS011;17181;51.002;4.096;2022-08-18T10:34:08;20.40;;;12.20;;
30384;SDS011;17181;51.002;4.096;2022-08-18T10:39:22;21.73;;;13.77;;
30384;SDS011;17181;51.002;4.096;2022-08-18T10:42:13;13.57;;;7.73;;
30384;SDS011;17181;51.002;4.096;2022-08-18T10:44:47;15.57;;;11.00;;
30384;SDS011;17181;51.002;4.096;2022-08-18T10:47:22;20.90;;;12.30;;
30384;SDS011;17181;51.002;4.096;2022-08-18T10:49:51;15.43;;;11.67;;
30384;SDS011;17181;51.002;4.096;2022-08-18T11:00:28;18.27;;;13.77;;
30384;SDS011;17181;51.002;4.096;2022-08-18T11:03:15;19.07;;;11.43;;
30384;SDS011;17181;51.002;4.096;2022-08-18T11:06:02;19.80;;;12.03;;
30384;SDS011;17181;51.002;4.096;2022-08-18T11:08:40;26.97;;;14.90;;
30384;SDS011;17181;51.002;4.096;2022-08-18T11:11:09;20.23;;;13.83;;
30384;SDS011;17181;51.002;4.096;2022-08-18T11:19:18;19.13;;;13.60;;
30384;SDS011;17181;51.002;4.096;2022-08-18T11:21:47;16.65;;;12.10;;
30384;SDS011;17181;51.002;4.096;2022-08-18T11:34:43;20.43;;;12.00;;
30384;SDS011;17181;51.002;4.096;2022-08-18T11:39:59;17.87;;;12.33;;
30384;SDS011;17181;51.002;4.096;2022-08-18T11:42:31;17.63;;;13.50;;
30384;SDS011;17181;51.002;4.096;2022-08-18T11:45:11;12.47;;;10.07;;
30384;SDS011;17181;51.002;4.096;2022-08-18T11:50:47;15.53;;;10.77;;
30384;SDS011;17181;51.002;4.096;2022-08-18T11:53:23;18.33;;;12.70;;
30384;SDS011;17181;51.002;4.096;2022-08-18T11:58:50;15.68;;;10.75;;
30384;SDS011;17181;51.002;4.096;2022-08-18T12:04:42;13.50;;;9.98;;
30384;SDS011;17181;51.002;4.096;2022-08-18T12:14:49;15.45;;;10.98;;
30384;SDS011;17181;51.002;4.096;2022-08-18T12:17:27;18.58;;;11.20;;
30384;SDS011;17181;51.002;4.096;2022-08-18T12:19:55;18.95;;;11.48;;
30384;SDS011;17181;51.002;4.096;2022-08-18T12:22:26;13.20;;;11.07;;
30384;SDS011;17181;51.002;4.096;2022-08-18T12:24:55;17.38;;;12.60;;
30384;SDS011;17181;51.002;4.096;2022-08-18T12:27:22;11.68;;;9.35;;
30384;SDS011;17181;51.002;4.096;2022-08-18T12:29:50;19.05;;;13.02;;
30384;SDS011;17181;51.002;4.096;2022-08-18T12:32:17;20.40;;;13.77;;
30384;SDS011;17181;51.002;4.096;2022-08-18T12:34:44;25.65;;;16.33;;
30384;SDS011;17181;51.002;4.096;2022-08-18T12:37:11;21.15;;;16.08;;
30384;SDS011;17181;51.002;4.096;2022-08-18T12:39:41;20.45;;;15.80;;
30384;SDS011;17181;51.002;4.096;2022-08-18T12:42:08;18.33;;;15.68;;
30384;SDS011;17181;51.002;4.096;2022-08-18T12:44:34;21.30;;;15.23;;
30384;SDS011;17181;51.002;4.096;2022-08-18T12:47:00;19.45;;;14.13;;
30384;SDS011;17181;51.002;4.096;2022-08-18T12:49:28;24.17;;;12.10;;
30384;SDS011;17181;51.002;4.096;2022-08-18T12:51:55;18.10;;;11.75;;
30384;SDS011;17181;51.002;4.096;2022-08-18T12:54:21;15.57;;;11.93;;
30384;SDS011;17181;51.002;4.096;2022-08-18T12:56:47;15.10;;;8.82;;
30384;SDS011;17181;51.002;4.096;2022-08-18T12:59:16;8.55;;;7.25;;
30384;SDS011;17181;51.002;4.096;2022-08-18T13:01:42;12.05;;;8.35;;
30384;SDS011;17181;51.002;4.096;2022-08-18T13:04:08;9.48;;;7.18;;
30384;SDS011;17181;51.002;4.096;2022-08-18T13:06:35;8.07;;;7.05;;
30384;SDS011;17181;51.002;4.096;2022-08-18T13:09:05;12.30;;;8.60;;
30384;SDS011;17181;51.002;4.096;2022-08-18T13:11:31;18.48;;;11.40;;
30384;SDS011;17181;51.002;4.096;2022-08-18T13:13:57;19.17;;;12.93;;
30384;SDS011;17181;51.002;4.096;2022-08-18T13:16:24;19.77;;;12.93;;
30384;SDS011;17181;51.002;4.096;2022-08-18T13:18:53;16.63;;;13.60;;
30384;SDS011;17181;51.002;4.096;2022-08-18T13:21:19;19.60;;;13.48;;
30384;SDS011;17181;51.002;4.096;2022-08-18T13:23:44;19.00;;;13.57;;
30384;SDS011;17181;51.002;4.096;2022-08-18T13:26:13;20.73;;;17.23;;
30384;SDS011;17181;51.002;4.096;2022-08-18T13:28:45;15.48;;;12.18;;
30384;SDS011;17181;51.002;4.096;2022-08-18T13:31:11;13.68;;;12.25;;
30384;SDS011;17181;51.002;4.096;2022-08-18T13:33:37;17.63;;;12.65;;
30384;SDS011;17181;51.002;4.096;2022-08-18T13:36:04;14.77;;;12.63;;
30384;SDS011;17181;51.002;4.096;2022-08-18T13:38:30;14.55;;;12.90;;
30384;SDS011;17181;51.002;4.096;2022-08-18T13:40:56;22.67;;;12.57;;
30384;SDS011;17181;51.002;4.096;2022-08-18T13:43:26;17.25;;;12.68;;
30384;SDS011;17181;51.002;4.096;2022-08-18T13:45:56;15.93;;;12.60;;
30384;SDS011;17181;51.002;4.096;2022-08-18T13:48:22;19.45;;;13.38;;
30384;SDS011;17181;51.002;4.096;2022-08-18T13:50:51;14.70;;;11.93;;
30384;SDS011;17181;51.002;4.096;2022-08-18T13:53:18;12.50;;;11.23;;
30384;SDS011;17181;51.002;4.096;2022-08-18T13:55:46;14.82;;;11.88;;
30384;SDS011;17181;51.002;4.096;2022-08-18T13:58:12;18.95;;;12.80;;
30384;SDS011;17181;51.002;4.096;2022-08-18T14:00:38;26.30;;;12.02;;
30384;SDS011;17181;51.002;4.096;2022-08-18T14:03:05;14.88;;;11.60;;
30384;SDS011;17181;51.002;4.096;2022-08-18T14:05:32;15.18;;;11.60;;
30384;SDS011;17181;51.002;4.096;2022-08-18T14:08:00;16.42;;;12.35;;
30384;SDS011;17181;51.002;4.096;2022-08-18T14:10:26;15.05;;;10.93;;
30384;SDS011;17181;51.002;4.096;2022-08-18T14:12:56;15.30;;;12.75;;
30384;SDS011;17181;51.002;4.096;2022-08-18T14:15:24;15.85;;;11.90;;
30384;SDS011;17181;51.002;4.096;2022-08-18T14:17:51;9.30;;;8.32;;
30384;SDS011;17181;51.002;4.096;2022-08-18T14:20:17;14.32;;;9.98;;
30384;SDS011;17181;51.002;4.096;2022-08-18T14:23:03;11.70;;;9.07;;
30384;SDS011;17181;51.002;4.096;2022-08-18T14:25:48;14.85;;;9.77;;
30384;SDS011;17181;51.002;4.096;2022-08-18T14:28:33;11.23;;;8.10;;
30384;SDS011;17181;51.002;4.096;2022-08-18T14:30:59;11.77;;;7.25;;
30384;SDS011;17181;51.002;4.096;2022-08-18T14:33:28;11.45;;;8.60;;
30384;SDS011;17181;51.002;4.096;2022-08-18T14:35:55;8.60;;;5.80;;
30384;SDS011;17181;51.002;4.096;2022-08-18T14:38:21;9.07;;;6.28;;
30384;SDS011;17181;51.002;4.096;2022-08-18T14:40:47;16.95;;;7.90;;
30384;SDS011;17181;51.002;4.096;2022-08-18T14:43:15;11.30;;;6.95;;
30384;SDS011;17181;51.002;4.096;2022-08-18T14:45:43;12.98;;;7.25;;
30384;SDS011;17181;51.002;4.096;2022-08-18T14:48:12;11.43;;;6.75;;
30384;SDS011;17181;51.002;4.096;2022-08-18T14:50:40;7.82;;;5.80;;
30384;SDS011;17181;51.002;4.096;2022-08-18T14:53:08;3.45;;;3.20;;
30384;SDS011;17181;51.002;4.096;2022-08-18T14:55:34;8.05;;;6.05;;
30384;SDS011;17181;51.002;4.096;2022-08-18T14:58:02;8.18;;;6.88;;
30384;SDS011;17181;51.002;4.096;2022-08-18T15:00:28;9.02;;;6.97;;
30384;SDS011;17181;51.002;4.096;2022-08-18T15:02:54;14.25;;;7.55;;
30384;SDS011;17181;51.002;4.096;2022-08-18T15:05:22;11.10;;;6.30;;
30384;SDS011;17181;51.002;4.096;2022-08-18T15:07:48;5.95;;;5.13;;
30384;SDS011;17181;51.002;4.096;2022-08-18T15:10:14;6.20;;;5.43;;
30384;SDS011;17181;51.002;4.096;2022-08-18T15:12:41;7.68;;;6.85;;
30384;SDS011;17181;51.002;4.096;2022-08-18T15:15:09;5.72;;;4.28;;
30384;SDS011;17181;51.002;4.096;2022-08-18T15:17:40;6.00;;;5.40;;
30384;SDS011;17181;51.002;4.096;2022-08-18T15:20:06;5.15;;;4.65;;
30384;SDS011;17181;51.002;4.096;2022-08-18T15:22:41;5.03;;;4.60;;
30384;SDS011;17181;51.002;4.096;2022-08-18T15:25:27;6.25;;;5.05;;
30384;SDS011;17181;51.002;4.096;2022-08-18T15:28:18;12.25;;;5.10;;
30384;SDS011;17181;51.002;4.096;2022-08-18T15:30:48;5.00;;;4.00;;
30384;SDS011;17181;51.002;4.096;2022-08-18T15:33:15;6.03;;;3.90;;
30384;SDS011;17181;51.002;4.096;2022-08-18T15:35:42;4.00;;;3.65;;
30384;SDS011;17181;51.002;4.096;2022-08-18T15:38:10;4.72;;;4.25;;
30384;SDS011;17181;51.002;4.096;2022-08-18T15:40:46;10.32;;;4.25;;
30384;SDS011;17181;51.002;4.096;2022-08-18T15:43:16;6.40;;;4.00;;
30384;SDS011;17181;51.002;4.096;2022-08-18T15:45:43;6.07;;;4.70;;
30384;SDS011;17181;51.002;4.096;2022-08-18T15:48:12;7.90;;;4.82;;
30384;SDS011;17181;51.002;4.096;2022-08-18T15:50:39;5.10;;;4.60;;
30384;SDS011;17181;51.002;4.096;2022-08-18T15:53:05;5.90;;;4.63;;
30384;SDS011;17181;51.002;4.096;2022-08-18T15:55:32;7.18;;;4.80;;
30384;SDS011;17181;51.002;4.096;2022-08-18T15:58:00;7.97;;;4.10;;
30384;SDS011;17181;51.002;4.096;2022-08-18T16:00:27;8.15;;;5.18;;
30384;SDS011;17181;51.002;4.096;2022-08-18T16:02:56;4.78;;;4.35;;
30384;SDS011;17181;51.002;4.096;2022-08-18T16:05:27;5.13;;;4.55;;
30384;SDS011;17181;51.002;4.096;2022-08-18T16:07:55;10.20;;;3.83;;
30384;SDS011;17181;51.002;4.096;2022-08-18T16:10:22;7.38;;;4.25;;
30384;SDS011;17181;51.002;4.096;2022-08-18T16:12:50;4.00;;;3.63;;
30384;SDS011;17181;51.002;4.096;2022-08-18T16:15:17;12.05;;;4.72;;
30384;SDS011;17181;51.002;4.096;2022-08-18T16:17:46;6.82;;;4.47;;
30384;SDS011;17181;51.002;4.096;2022-08-18T16:20:12;5.30;;;3.33;;
30384;SDS011;17181;51.002;4.096;2022-08-18T16:22:39;9.30;;;4.15;;
30384;SDS011;17181;51.002;4.096;2022-08-18T16:25:05;4.85;;;4.45;;
30384;SDS011;17181;51.002;4.096;2022-08-18T16:27:35;3.55;;;3.25;;
30384;SDS011;17181;51.002;4.096;2022-08-18T16:30:06;4.07;;;3.67;;
30384;SDS011;17181;51.002;4.096;2022-08-18T16:32:34;3.47;;;3.00;;
30384;SDS011;17181;51.002;4.096;2022-08-18T16:35:00;4.32;;;3.92;;
30384;SDS011;17181;51.002;4.096;2022-08-18T16:37:26;4.22;;;3.88;;
30384;SDS011;17181;51.002;4.096;2022-08-18T16:39:52;4.78;;;3.92;;
30384;SDS011;17181;51.002;4.096;2022-08-18T16:42:18;8.32;;;4.00;;
30384;SDS011;17181;51.002;4.096;2022-08-18T16:44:44;4.18;;;3.75;;
30384;SDS011;17181;51.002;4.096;2022-08-18T16:47:10;5.30;;;4.35;;
30384;SDS011;17181;51.002;4.096;2022-08-18T16:49:45;3.97;;;3.67;;
30384;SDS011;17181;51.002;4.096;2022-08-18T16:52:14;5.38;;;4.25;;
30384;SDS011;17181;51.002;4.096;2022-08-18T16:54:41;4.88;;;4.07;;
30384;SDS011;17181;51.002;4.096;2022-08-18T16:57:07;3.83;;;3.50;;
30384;SDS011;17181;51.002;4.096;2022-08-18T16:59:34;4.20;;;3.88;;
30384;SDS011;17181;51.002;4.096;2022-08-18T17:02:19;5.90;;;3.58;;
30384;SDS011;17181;51.002;4.096;2022-08-18T17:05:03;5.28;;;3.50;;
30384;SDS011;17181;51.002;4.096;2022-08-18T17:07:30;4.72;;;4.05;;
30384;SDS011;17181;51.002;4.096;2022-08-18T17:09:58;4.88;;;4.07;;
30384;SDS011;17181;51.002;4.096;2022-08-18T17:12:24;3.97;;;3.58;;
30384;SDS011;17181;51.002;4.096;2022-08-18T17:14:51;5.57;;;3.88;;
30384;SDS011;17181;51.002;4.096;2022-08-18T17:17:18;4.13;;;3.65;;
30384;SDS011;17181;51.002;4.096;2022-08-18T17:19:45;4.47;;;3.72;;
30384;SDS011;17181;51.002;4.096;2022-08-18T17:22:12;4.65;;;3.47;;
30384;SDS011;17181;51.002;4.096;2022-08-18T17:24:39;3.97;;;3.13;;
30384;SDS011;17181;51.002;4.096;2022-08-18T17:27:19;11.70;;;4.40;;
30384;SDS011;17181;51.002;4.096;2022-08-18T17:30:05;4.35;;;3.92;;
30384;SDS011;17181;51.002;4.096;2022-08-18T17:32:44;9.35;;;4.30;;
30384;SDS011;17181;51.002;4.096;2022-08-18T17:40:44;3.58;;;3.25;;
30384;SDS011;17181;51.002;4.096;2022-08-18T17:43:17;5.85;;;3.90;;
30384;SDS011;17181;51.002;4.096;2022-08-18T17:45:56;6.68;;;3.75;;
30384;SDS011;17181;51.002;4.096;2022-08-18T17:51:14;4.82;;;3.25;;